sensor_id;sensor_type;location;lat;lon;timestamp;P1;durP1;ratioP1;P2;durP2;ratioP2
54201;SDS011;40108;53.152;5.844;2023-04-09T00:01:53;80.32;;;51.05;;
54201;SDS011;40108;53.152;5.844;2023-04-09T00:04:20;74.15;;;48.63;;
54201;SDS011;40108;53.152;5.844;2023-04-09T00:06:46;77.07;;;47.92;;
54201;SDS011;40108;53.152;5.844;2023-04-09T00:09:12;74.13;;;48.05;;
54201;SDS011;40108;53.152;5.844;2023-04-09T00:11:38;81.75;;;48.88;;
54201;SDS011;40108;53.152;5.844;2023-04-09T00:14:04;74.18;;;46.05;;
54201;SDS011;40108;53.152;5.844;2023-04-09T00:16:29;80.43;;;51.35;;
54201;SDS011;40108;53.152;5.844;2023-04-09T00:18:55;77.20;;;50.63;;
54201;SDS011;40108;53.152;5.844;2023-04-09T00:21:21;74.75;;;49.75;;
54201;SDS011;40108;53.152;5.844;2023-04-09T00:23:47;84.57;;;50.83;;
54201;SDS011;40108;53.152;5.844;2023-04-09T00:26:12;83.93;;;52.88;;
54201;SDS011;40108;53.152;5.844;2023-04-09T00:28:38;85.78;;;51.20;;
54201;SDS011;40108;53.152;5.844;2023-04-09T00:31:04;78.20;;;51.05;;
54201;SDS011;40108;53.152;5.844;2023-04-09T00:33:30;84.53;;;52.40;;
54201;SDS011;40108;53.152;5.844;2023-04-09T00:35:55;85.07;;;53.80;;
54201;SDS011;40108;53.152;5.844;2023-04-09T00:38:21;80.07;;;52.55;;
54201;SDS011;40108;53.152;5.844;2023-04-09T00:40:47;78.72;;;51.47;;
54201;SDS011;40108;53.152;5.844;2023-04-09T00:43:14;92.30;;;55.13;;
54201;SDS011;40108;53.152;5.844;2023-04-09T00:45:40;78.78;;;52.30;;
54201;SDS011;40108;53.152;5.844;2023-04-09T00:48:06;89.78;;;54.63;;
54201;SDS011;40108;53.152;5.844;2023-04-09T00:50:32;88.35;;;55.97;;
54201;SDS011;40108;53.152;5.844;2023-04-09T00:52:58;86.85;;;55.38;;
54201;SDS011;40108;53.152;5.844;2023-04-09T00:55:25;87.50;;;55.40;;
54201;SDS011;40108;53.152;5.844;2023-04-09T00:57:51;91.60;;;56.97;;
54201;SDS011;40108;53.152;5.844;2023-04-09T01:00:16;84.28;;;53.75;;
54201;SDS011;40108;53.152;5.844;2023-04-09T01:02:42;92.05;;;54.92;;
54201;SDS011;40108;53.152;5.844;2023-04-09T01:05:10;89.05;;;53.85;;
54201;SDS011;40108;53.152;5.844;2023-04-09T01:07:56;88.38;;;54.33;;
54201;SDS011;40108;53.152;5.844;2023-04-09T01:13:06;91.10;;;54.65;;
54201;SDS011;40108;53.152;5.844;2023-04-09T01:15:56;85.47;;;52.95;;
54201;SDS011;40108;53.152;5.844;2023-04-09T01:18:34;85.85;;;52.85;;
54201;SDS011;40108;53.152;5.844;2023-04-09T01:21:06;79.85;;;51.80;;
54201;SDS011;40108;53.152;5.844;2023-04-09T01:26:52;77.13;;;51.70;;
54201;SDS011;40108;53.152;5.844;2023-04-09T01:29:31;76.63;;;48.88;;
54201;SDS011;40108;53.152;5.844;2023-04-09T01:31:59;76.22;;;51.15;;
54201;SDS011;40108;53.152;5.844;2023-04-09T01:34:27;72.75;;;50.28;;
54201;SDS011;40108;53.152;5.844;2023-04-09T01:36:55;75.40;;;48.80;;
54201;SDS011;40108;53.152;5.844;2023-04-09T01:39:23;75.03;;;49.40;;
54201;SDS011;40108;53.152;5.844;2023-04-09T01:41:50;75.72;;;51.03;;
54201;SDS011;40108;53.152;5.844;2023-04-09T01:44:17;75.25;;;47.47;;
54201;SDS011;40108;53.152;5.844;2023-04-09T01:46:45;73.20;;;49.25;;
54201;SDS011;40108;53.152;5.844;2023-04-09T01:49:12;76.45;;;48.80;;
54201;SDS011;40108;53.152;5.844;2023-04-09T01:51:39;68.82;;;47.03;;
54201;SDS011;40108;53.152;5.844;2023-04-09T01:54:06;72.95;;;44.95;;
54201;SDS011;40108;53.152;5.844;2023-04-09T01:56:38;72.18;;;46.08;;
54201;SDS011;40108;53.152;5.844;2023-04-09T01:59:08;76.82;;;48.00;;
54201;SDS011;40108;53.152;5.844;2023-04-09T02:01:37;79.70;;;48.92;;
54201;SDS011;40108;53.152;5.844;2023-04-09T02:04:15;78.40;;;48.90;;
54201;SDS011;40108;53.152;5.844;2023-04-09T02:09:20;79.95;;;47.65;;
54201;SDS011;40108;53.152;5.844;2023-04-09T02:11:48;79.78;;;48.47;;
54201;SDS011;40108;53.152;5.844;2023-04-09T02:14:15;74.57;;;45.75;;
54201;SDS011;40108;53.152;5.844;2023-04-09T02:16:42;77.40;;;46.78;;
54201;SDS011;40108;53.152;5.844;2023-04-09T02:19:08;82.18;;;49.17;;
54201;SDS011;40108;53.152;5.844;2023-04-09T02:21:33;81.82;;;47.17;;
54201;SDS011;40108;53.152;5.844;2023-04-09T02:23:59;83.10;;;48.30;;
54201;SDS011;40108;53.152;5.844;2023-04-09T02:26:25;87.85;;;50.55;;
54201;SDS011;40108;53.152;5.844;2023-04-09T02:28:50;88.82;;;50.35;;
54201;SDS011;40108;53.152;5.844;2023-04-09T02:31:16;90.65;;;49.55;;
54201;SDS011;40108;53.152;5.844;2023-04-09T02:33:42;93.20;;;49.35;;
54201;SDS011;40108;53.152;5.844;2023-04-09T02:36:11;84.90;;;49.83;;
54201;SDS011;40108;53.152;5.844;2023-04-09T02:38:40;100.13;;;51.08;;
54201;SDS011;40108;53.152;5.844;2023-04-09T02:41:06;82.15;;;47.10;;
54201;SDS011;40108;53.152;5.844;2023-04-09T02:43:32;90.43;;;50.42;;
54201;SDS011;40108;53.152;5.844;2023-04-09T02:45:58;88.88;;;50.90;;
54201;SDS011;40108;53.152;5.844;2023-04-09T02:51:15;93.93;;;52.72;;
54201;SDS011;40108;53.152;5.844;2023-04-09T02:53:41;91.60;;;51.50;;
54201;SDS011;40108;53.152;5.844;2023-04-09T02:56:06;90.32;;;50.40;;
54201;SDS011;40108;53.152;5.844;2023-04-09T02:58:32;95.07;;;52.03;;
54201;SDS011;40108;53.152;5.844;2023-04-09T03:00:58;96.60;;;50.97;;
54201;SDS011;40108;53.152;5.844;2023-04-09T03:03:23;92.57;;;50.08;;
54201;SDS011;40108;53.152;5.844;2023-04-09T03:05:49;111.63;;;54.00;;
54201;SDS011;40108;53.152;5.844;2023-04-09T03:08:15;106.63;;;53.38;;
54201;SDS011;40108;53.152;5.844;2023-04-09T03:10:41;97.82;;;53.85;;
54201;SDS011;40108;53.152;5.844;2023-04-09T03:13:07;100.90;;;54.70;;
54201;SDS011;40108;53.152;5.844;2023-04-09T03:15:32;104.60;;;55.65;;
54201;SDS011;40108;53.152;5.844;2023-04-09T03:17:58;101.68;;;56.05;;
54201;SDS011;40108;53.152;5.844;2023-04-09T03:20:24;105.20;;;53.90;;
54201;SDS011;40108;53.152;5.844;2023-04-09T03:22:49;108.95;;;55.72;;
54201;SDS011;40108;53.152;5.844;2023-04-09T03:25:15;105.57;;;54.60;;
54201;SDS011;40108;53.152;5.844;2023-04-09T03:27:43;108.90;;;56.22;;
54201;SDS011;40108;53.152;5.844;2023-04-09T03:30:09;104.70;;;55.58;;
54201;SDS011;40108;53.152;5.844;2023-04-09T03:32:35;102.50;;;54.83;;
54201;SDS011;40108;53.152;5.844;2023-04-09T03:35:01;108.47;;;54.70;;
54201;SDS011;40108;53.152;5.844;2023-04-09T03:37:26;104.13;;;53.85;;
54201;SDS011;40108;53.152;5.844;2023-04-09T03:39:52;110.95;;;54.08;;
54201;SDS011;40108;53.152;5.844;2023-04-09T03:42:18;104.97;;;52.75;;
54201;SDS011;40108;53.152;5.844;2023-04-09T03:44:43;106.53;;;53.20;;
54201;SDS011;40108;53.152;5.844;2023-04-09T03:47:09;104.30;;;52.50;;
54201;SDS011;40108;53.152;5.844;2023-04-09T03:49:35;106.18;;;52.15;;
54201;SDS011;40108;53.152;5.844;2023-04-09T03:52:01;103.70;;;55.08;;
54201;SDS011;40108;53.152;5.844;2023-04-09T03:54:30;104.93;;;52.88;;
54201;SDS011;40108;53.152;5.844;2023-04-09T03:56:56;101.50;;;52.90;;
54201;SDS011;40108;53.152;5.844;2023-04-09T03:59:22;107.22;;;51.83;;
54201;SDS011;40108;53.152;5.844;2023-04-09T04:01:48;102.55;;;51.22;;
54201;SDS011;40108;53.152;5.844;2023-04-09T04:04:13;98.10;;;51.78;;
54201;SDS011;40108;53.152;5.844;2023-04-09T04:06:39;99.47;;;50.42;;
54201;SDS011;40108;53.152;5.844;2023-04-09T04:09:05;96.50;;;49.33;;
54201;SDS011;40108;53.152;5.844;2023-04-09T04:11:31;101.80;;;51.45;;
54201;SDS011;40108;53.152;5.844;2023-04-09T04:13:56;96.45;;;50.30;;
54201;SDS011;40108;53.152;5.844;2023-04-09T04:16:22;98.78;;;48.72;;
54201;SDS011;40108;53.152;5.844;2023-04-09T04:18:48;93.63;;;49.50;;
54201;SDS011;40108;53.152;5.844;2023-04-09T04:21:14;86.03;;;46.42;;
54201;SDS011;40108;53.152;5.844;2023-04-09T04:23:41;86.20;;;45.05;;
54201;SDS011;40108;53.152;5.844;2023-04-09T04:26:09;78.28;;;41.58;;
54201;SDS011;40108;53.152;5.844;2023-04-09T04:28:36;80.80;;;42.88;;
54201;SDS011;40108;53.152;5.844;2023-04-09T04:31:02;72.47;;;39.85;;
54201;SDS011;40108;53.152;5.844;2023-04-09T04:33:35;75.68;;;40.42;;
54201;SDS011;40108;53.152;5.844;2023-04-09T04:36:09;78.30;;;39.50;;
54201;SDS011;40108;53.152;5.844;2023-04-09T04:38:36;70.03;;;37.20;;
54201;SDS011;40108;53.152;5.844;2023-04-09T04:41:03;75.57;;;41.22;;
54201;SDS011;40108;53.152;5.844;2023-04-09T04:43:28;76.85;;;40.75;;
54201;SDS011;40108;53.152;5.844;2023-04-09T04:45:54;72.72;;;39.42;;
54201;SDS011;40108;53.152;5.844;2023-04-09T04:48:20;75.63;;;39.30;;
54201;SDS011;40108;53.152;5.844;2023-04-09T04:50:53;71.05;;;37.10;;
54201;SDS011;40108;53.152;5.844;2023-04-09T04:53:22;72.03;;;37.65;;
54201;SDS011;40108;53.152;5.844;2023-04-09T04:55:48;70.45;;;37.83;;
54201;SDS011;40108;53.152;5.844;2023-04-09T04:58:14;77.85;;;40.35;;
54201;SDS011;40108;53.152;5.844;2023-04-09T05:00:40;75.13;;;39.78;;
54201;SDS011;40108;53.152;5.844;2023-04-09T05:03:06;76.43;;;38.60;;
54201;SDS011;40108;53.152;5.844;2023-04-09T05:05:32;79.22;;;42.28;;
54201;SDS011;40108;53.152;5.844;2023-04-09T05:07:58;71.97;;;40.00;;
54201;SDS011;40108;53.152;5.844;2023-04-09T05:10:23;73.30;;;39.42;;
54201;SDS011;40108;53.152;5.844;2023-04-09T05:12:49;68.75;;;37.17;;
54201;SDS011;40108;53.152;5.844;2023-04-09T05:15:15;71.35;;;38.25;;
54201;SDS011;40108;53.152;5.844;2023-04-09T05:17:43;68.95;;;39.20;;
54201;SDS011;40108;53.152;5.844;2023-04-09T05:20:09;65.60;;;36.70;;
54201;SDS011;40108;53.152;5.844;2023-04-09T05:22:35;68.85;;;38.65;;
54201;SDS011;40108;53.152;5.844;2023-04-09T05:25:01;62.33;;;34.88;;
54201;SDS011;40108;53.152;5.844;2023-04-09T05:27:28;64.53;;;33.92;;
54201;SDS011;40108;53.152;5.844;2023-04-09T05:29:53;65.10;;;35.63;;
54201;SDS011;40108;53.152;5.844;2023-04-09T05:32:20;63.47;;;34.92;;
54201;SDS011;40108;53.152;5.844;2023-04-09T05:34:45;64.70;;;36.25;;
54201;SDS011;40108;53.152;5.844;2023-04-09T05:37:11;60.50;;;34.15;;
54201;SDS011;40108;53.152;5.844;2023-04-09T05:39:37;67.22;;;34.78;;
54201;SDS011;40108;53.152;5.844;2023-04-09T05:42:03;61.65;;;34.63;;
54201;SDS011;40108;53.152;5.844;2023-04-09T05:44:29;66.40;;;35.08;;
54201;SDS011;40108;53.152;5.844;2023-04-09T05:46:54;64.05;;;36.67;;
54201;SDS011;40108;53.152;5.844;2023-04-09T05:49:20;68.07;;;37.05;;
54201;SDS011;40108;53.152;5.844;2023-04-09T05:51:46;61.55;;;35.50;;
54201;SDS011;40108;53.152;5.844;2023-04-09T05:54:12;60.88;;;35.78;;
54201;SDS011;40108;53.152;5.844;2023-04-09T05:56:37;61.47;;;34.85;;
54201;SDS011;40108;53.152;5.844;2023-04-09T05:59:03;62.47;;;35.83;;
54201;SDS011;40108;53.152;5.844;2023-04-09T06:01:29;62.15;;;36.38;;
54201;SDS011;40108;53.152;5.844;2023-04-09T06:03:54;60.72;;;34.58;;
54201;SDS011;40108;53.152;5.844;2023-04-09T06:06:20;57.58;;;34.47;;
54201;SDS011;40108;53.152;5.844;2023-04-09T06:08:46;57.65;;;32.38;;
54201;SDS011;40108;53.152;5.844;2023-04-09T06:11:12;60.22;;;34.72;;
54201;SDS011;40108;53.152;5.844;2023-04-09T06:13:37;59.33;;;34.35;;
54201;SDS011;40108;53.152;5.844;2023-04-09T06:16:04;59.33;;;34.67;;
54201;SDS011;40108;53.152;5.844;2023-04-09T06:18:31;51.92;;;32.33;;
54201;SDS011;40108;53.152;5.844;2023-04-09T06:21:06;52.53;;;33.13;;
54201;SDS011;40108;53.152;5.844;2023-04-09T06:23:33;54.55;;;33.30;;
54201;SDS011;40108;53.152;5.844;2023-04-09T06:26:00;55.88;;;32.67;;
54201;SDS011;40108;53.152;5.844;2023-04-09T06:28:29;54.90;;;33.55;;
54201;SDS011;40108;53.152;5.844;2023-04-09T06:30:56;49.88;;;32.42;;
54201;SDS011;40108;53.152;5.844;2023-04-09T06:33:23;48.60;;;30.85;;
54201;SDS011;40108;53.152;5.844;2023-04-09T06:35:48;49.22;;;31.48;;
54201;SDS011;40108;53.152;5.844;2023-04-09T06:38:14;46.67;;;29.90;;
54201;SDS011;40108;53.152;5.844;2023-04-09T06:40:40;48.78;;;30.75;;
54201;SDS011;40108;53.152;5.844;2023-04-09T06:43:06;50.15;;;31.17;;
54201;SDS011;40108;53.152;5.844;2023-04-09T06:45:32;54.15;;;31.17;;
54201;SDS011;40108;53.152;5.844;2023-04-09T06:47:59;45.22;;;29.50;;
54201;SDS011;40108;53.152;5.844;2023-04-09T06:50:24;44.97;;;27.92;;
54201;SDS011;40108;53.152;5.844;2023-04-09T06:52:51;44.72;;;29.10;;
54201;SDS011;40108;53.152;5.844;2023-04-09T06:55:17;49.15;;;29.25;;
54201;SDS011;40108;53.152;5.844;2023-04-09T06:57:42;50.40;;;30.45;;
54201;SDS011;40108;53.152;5.844;2023-04-09T07:00:08;45.33;;;28.88;;
54201;SDS011;40108;53.152;5.844;2023-04-09T07:02:35;47.72;;;30.13;;
54201;SDS011;40108;53.152;5.844;2023-04-09T07:05:01;44.05;;;29.55;;
54201;SDS011;40108;53.152;5.844;2023-04-09T07:07:29;44.00;;;28.60;;
54201;SDS011;40108;53.152;5.844;2023-04-09T07:09:55;50.17;;;28.75;;
54201;SDS011;40108;53.152;5.844;2023-04-09T07:12:25;43.33;;;29.35;;
54201;SDS011;40108;53.152;5.844;2023-04-09T07:14:58;43.50;;;29.90;;
54201;SDS011;40108;53.152;5.844;2023-04-09T07:17:32;48.58;;;30.60;;
54201;SDS011;40108;53.152;5.844;2023-04-09T07:19:58;50.00;;;30.02;;
54201;SDS011;40108;53.152;5.844;2023-04-09T07:22:24;46.88;;;30.65;;
54201;SDS011;40108;53.152;5.844;2023-04-09T07:24:51;46.88;;;30.10;;
54201;SDS011;40108;53.152;5.844;2023-04-09T07:29:47;47.35;;;32.47;;
54201;SDS011;40108;53.152;5.844;2023-04-09T07:32:13;49.33;;;31.90;;
54201;SDS011;40108;53.152;5.844;2023-04-09T07:34:40;53.58;;;33.88;;
54201;SDS011;40108;53.152;5.844;2023-04-09T07:37:06;62.83;;;36.15;;
54201;SDS011;40108;53.152;5.844;2023-04-09T07:39:31;54.58;;;34.47;;
54201;SDS011;40108;53.152;5.844;2023-04-09T07:41:57;50.80;;;33.03;;
54201;SDS011;40108;53.152;5.844;2023-04-09T07:44:27;49.80;;;31.02;;
54201;SDS011;40108;53.152;5.844;2023-04-09T07:46:53;53.63;;;32.08;;
54201;SDS011;40108;53.152;5.844;2023-04-09T07:49:18;53.92;;;34.25;;
54201;SDS011;40108;53.152;5.844;2023-04-09T07:51:46;51.95;;;33.30;;
54201;SDS011;40108;53.152;5.844;2023-04-09T07:54:11;54.58;;;33.70;;
54201;SDS011;40108;53.152;5.844;2023-04-09T07:56:37;55.95;;;34.30;;
54201;SDS011;40108;53.152;5.844;2023-04-09T07:59:03;56.53;;;35.15;;
54201;SDS011;40108;53.152;5.844;2023-04-09T08:01:29;57.95;;;34.78;;
54201;SDS011;40108;53.152;5.844;2023-04-09T08:03:55;51.30;;;31.85;;
54201;SDS011;40108;53.152;5.844;2023-04-09T08:06:21;57.08;;;35.97;;
54201;SDS011;40108;53.152;5.844;2023-04-09T08:08:46;54.78;;;32.67;;
54201;SDS011;40108;53.152;5.844;2023-04-09T08:11:12;53.13;;;31.40;;
54201;SDS011;40108;53.152;5.844;2023-04-09T08:13:38;58.58;;;33.70;;
54201;SDS011;40108;53.152;5.844;2023-04-09T08:16:04;56.20;;;35.08;;
54201;SDS011;40108;53.152;5.844;2023-04-09T08:18:30;59.22;;;36.65;;
54201;SDS011;40108;53.152;5.844;2023-04-09T08:20:56;61.28;;;37.08;;
54201;SDS011;40108;53.152;5.844;2023-04-09T08:23:22;57.20;;;33.20;;
54201;SDS011;40108;53.152;5.844;2023-04-09T08:25:47;57.35;;;35.38;;
54201;SDS011;40108;53.152;5.844;2023-04-09T08:28:13;57.55;;;35.17;;
54201;SDS011;40108;53.152;5.844;2023-04-09T08:30:39;58.45;;;36.72;;
54201;SDS011;40108;53.152;5.844;2023-04-09T08:33:04;65.28;;;38.47;;
54201;SDS011;40108;53.152;5.844;2023-04-09T08:35:30;64.07;;;36.60;;
54201;SDS011;40108;53.152;5.844;2023-04-09T08:37:56;61.10;;;36.72;;
54201;SDS011;40108;53.152;5.844;2023-04-09T08:40:22;64.00;;;37.78;;
54201;SDS011;40108;53.152;5.844;2023-04-09T08:42:51;55.22;;;33.67;;
54201;SDS011;40108;53.152;5.844;2023-04-09T08:45:21;65.60;;;36.65;;
54201;SDS011;40108;53.152;5.844;2023-04-09T08:47:48;59.10;;;35.83;;
54201;SDS011;40108;53.152;5.844;2023-04-09T08:50:15;61.95;;;36.10;;
54201;SDS011;40108;53.152;5.844;2023-04-09T08:52:41;59.13;;;35.08;;
54201;SDS011;40108;53.152;5.844;2023-04-09T08:55:09;62.95;;;37.47;;
54201;SDS011;40108;53.152;5.844;2023-04-09T08:57:36;69.78;;;40.95;;
54201;SDS011;40108;53.152;5.844;2023-04-09T09:00:03;64.30;;;38.50;;
54201;SDS011;40108;53.152;5.844;2023-04-09T09:02:29;63.15;;;38.55;;
54201;SDS011;40108;53.152;5.844;2023-04-09T09:04:55;68.78;;;41.03;;
54201;SDS011;40108;53.152;5.844;2023-04-09T09:07:25;75.22;;;42.58;;
54201;SDS011;40108;53.152;5.844;2023-04-09T09:09:55;65.00;;;38.42;;
54201;SDS011;40108;53.152;5.844;2023-04-09T09:12:33;58.65;;;35.35;;
54201;SDS011;40108;53.152;5.844;2023-04-09T09:15:03;57.00;;;34.60;;
54201;SDS011;40108;53.152;5.844;2023-04-09T09:17:31;60.25;;;35.50;;
54201;SDS011;40108;53.152;5.844;2023-04-09T09:19:57;61.60;;;35.70;;
54201;SDS011;40108;53.152;5.844;2023-04-09T09:22:23;57.83;;;36.58;;
54201;SDS011;40108;53.152;5.844;2023-04-09T09:24:50;61.50;;;36.50;;
54201;SDS011;40108;53.152;5.844;2023-04-09T09:27:35;60.50;;;35.97;;
54201;SDS011;40108;53.152;5.844;2023-04-09T09:30:03;59.13;;;35.95;;
54201;SDS011;40108;53.152;5.844;2023-04-09T09:32:30;56.47;;;36.17;;
54201;SDS011;40108;53.152;5.844;2023-04-09T09:35:00;57.55;;;34.60;;
54201;SDS011;40108;53.152;5.844;2023-04-09T09:37:28;59.28;;;36.05;;
54201;SDS011;40108;53.152;5.844;2023-04-09T09:39:54;56.25;;;33.95;;
54201;SDS011;40108;53.152;5.844;2023-04-09T09:42:20;55.13;;;34.72;;
54201;SDS011;40108;53.152;5.844;2023-04-09T09:44:46;56.22;;;34.55;;
54201;SDS011;40108;53.152;5.844;2023-04-09T09:47:12;51.15;;;32.38;;
54201;SDS011;40108;53.152;5.844;2023-04-09T09:49:39;57.28;;;35.30;;
54201;SDS011;40108;53.152;5.844;2023-04-09T09:52:09;54.03;;;33.58;;
54201;SDS011;40108;53.152;5.844;2023-04-09T09:54:39;58.75;;;34.50;;
54201;SDS011;40108;53.152;5.844;2023-04-09T09:57:06;55.25;;;34.08;;
54201;SDS011;40108;53.152;5.844;2023-04-09T09:59:36;54.55;;;34.28;;
54201;SDS011;40108;53.152;5.844;2023-04-09T10:02:07;55.40;;;33.05;;
54201;SDS011;40108;53.152;5.844;2023-04-09T10:04:42;54.17;;;34.53;;
54201;SDS011;40108;53.152;5.844;2023-04-09T10:07:08;49.58;;;31.08;;
54201;SDS011;40108;53.152;5.844;2023-04-09T10:09:36;52.03;;;32.08;;
54201;SDS011;40108;53.152;5.844;2023-04-09T10:12:05;46.15;;;29.73;;
54201;SDS011;40108;53.152;5.844;2023-04-09T10:14:33;50.88;;;31.60;;
54201;SDS011;40108;53.152;5.844;2023-04-09T10:17:00;48.92;;;32.35;;
54201;SDS011;40108;53.152;5.844;2023-04-09T10:19:28;49.33;;;33.42;;
54201;SDS011;40108;53.152;5.844;2023-04-09T10:21:56;47.28;;;31.85;;
54201;SDS011;40108;53.152;5.844;2023-04-09T10:24:28;49.92;;;30.30;;
54201;SDS011;40108;53.152;5.844;2023-04-09T10:26:56;47.80;;;30.45;;
54201;SDS011;40108;53.152;5.844;2023-04-09T10:29:32;46.92;;;29.92;;
54201;SDS011;40108;53.152;5.844;2023-04-09T10:32:08;47.47;;;31.40;;
54201;SDS011;40108;53.152;5.844;2023-04-09T10:34:34;47.30;;;30.10;;
54201;SDS011;40108;53.152;5.844;2023-04-09T10:37:03;49.42;;;31.35;;
54201;SDS011;40108;53.152;5.844;2023-04-09T10:39:43;47.03;;;31.27;;
54201;SDS011;40108;53.152;5.844;2023-04-09T10:42:12;46.17;;;29.80;;
54201;SDS011;40108;53.152;5.844;2023-04-09T10:44:42;47.20;;;30.60;;
54201;SDS011;40108;53.152;5.844;2023-04-09T10:47:08;45.28;;;31.20;;
54201;SDS011;40108;53.152;5.844;2023-04-09T10:49:35;47.80;;;31.33;;
54201;SDS011;40108;53.152;5.844;2023-04-09T10:52:06;42.03;;;26.95;;
54201;SDS011;40108;53.152;5.844;2023-04-09T10:54:42;45.45;;;29.42;;
54201;SDS011;40108;53.152;5.844;2023-04-09T10:57:13;45.08;;;30.95;;
54201;SDS011;40108;53.152;5.844;2023-04-09T10:59:50;40.08;;;28.60;;
54201;SDS011;40108;53.152;5.844;2023-04-09T11:02:30;40.30;;;27.55;;
54201;SDS011;40108;53.152;5.844;2023-04-09T11:10:25;42.67;;;28.30;;
54201;SDS011;40108;53.152;5.844;2023-04-09T11:12:51;47.08;;;31.58;;
54201;SDS011;40108;53.152;5.844;2023-04-09T11:15:18;43.10;;;29.80;;
54201;SDS011;40108;53.152;5.844;2023-04-09T11:17:45;43.40;;;29.63;;
54201;SDS011;40108;53.152;5.844;2023-04-09T11:20:12;42.67;;;29.02;;
54201;SDS011;40108;53.152;5.844;2023-04-09T11:22:39;43.03;;;29.83;;
54201;SDS011;40108;53.152;5.844;2023-04-09T11:25:05;44.95;;;29.63;;
54201;SDS011;40108;53.152;5.844;2023-04-09T11:27:35;41.20;;;28.90;;
54201;SDS011;40108;53.152;5.844;2023-04-09T11:30:08;38.88;;;27.73;;
54201;SDS011;40108;53.152;5.844;2023-04-09T11:32:34;41.65;;;28.80;;
54201;SDS011;40108;53.152;5.844;2023-04-09T11:35:00;37.45;;;27.00;;
54201;SDS011;40108;53.152;5.844;2023-04-09T11:37:26;38.17;;;26.67;;
54201;SDS011;40108;53.152;5.844;2023-04-09T11:39:52;38.35;;;25.45;;
54201;SDS011;40108;53.152;5.844;2023-04-09T11:42:19;36.65;;;26.05;;
54201;SDS011;40108;53.152;5.844;2023-04-09T11:44:49;35.08;;;26.05;;
54201;SDS011;40108;53.152;5.844;2023-04-09T11:47:17;36.78;;;27.13;;
54201;SDS011;40108;53.152;5.844;2023-04-09T11:49:44;39.90;;;28.42;;
54201;SDS011;40108;53.152;5.844;2023-04-09T11:52:11;36.67;;;27.38;;
54201;SDS011;40108;53.152;5.844;2023-04-09T11:54:40;35.85;;;26.92;;
54201;SDS011;40108;53.152;5.844;2023-04-09T11:57:06;35.42;;;26.45;;
54201;SDS011;40108;53.152;5.844;2023-04-09T11:59:32;41.10;;;27.80;;
54201;SDS011;40108;53.152;5.844;2023-04-09T12:01:58;35.42;;;26.50;;
54201;SDS011;40108;53.152;5.844;2023-04-09T12:04:23;39.92;;;28.50;;
54201;SDS011;40108;53.152;5.844;2023-04-09T12:06:49;36.83;;;27.30;;
54201;SDS011;40108;53.152;5.844;2023-04-09T12:09:15;34.20;;;25.10;;
54201;SDS011;40108;53.152;5.844;2023-04-09T12:11:42;34.38;;;24.23;;
54201;SDS011;40108;53.152;5.844;2023-04-09T12:14:12;30.00;;;21.98;;
54201;SDS011;40108;53.152;5.844;2023-04-09T12:16:40;30.98;;;24.10;;
54201;SDS011;40108;53.152;5.844;2023-04-09T12:19:08;30.75;;;24.15;;
54201;SDS011;40108;53.152;5.844;2023-04-09T12:21:50;30.08;;;22.08;;
54201;SDS011;40108;53.152;5.844;2023-04-09T12:24:22;29.38;;;23.00;;
54201;SDS011;40108;53.152;5.844;2023-04-09T12:26:49;30.58;;;23.02;;
54201;SDS011;40108;53.152;5.844;2023-04-09T12:29:17;33.22;;;23.40;;
54201;SDS011;40108;53.152;5.844;2023-04-09T12:31:44;29.83;;;22.17;;
54201;SDS011;40108;53.152;5.844;2023-04-09T12:34:10;32.47;;;23.25;;
54201;SDS011;40108;53.152;5.844;2023-04-09T12:36:37;28.48;;;23.13;;
54201;SDS011;40108;53.152;5.844;2023-04-09T12:39:03;32.78;;;23.02;;
54201;SDS011;40108;53.152;5.844;2023-04-09T12:41:29;29.35;;;22.30;;
54201;SDS011;40108;53.152;5.844;2023-04-09T12:43:55;31.55;;;23.23;;
54201;SDS011;40108;53.152;5.844;2023-04-09T12:46:21;27.52;;;21.85;;
54201;SDS011;40108;53.152;5.844;2023-04-09T12:48:47;29.67;;;23.05;;
54201;SDS011;40108;53.152;5.844;2023-04-09T12:51:12;27.20;;;20.98;;
54201;SDS011;40108;53.152;5.844;2023-04-09T12:53:39;31.55;;;22.65;;
54201;SDS011;40108;53.152;5.844;2023-04-09T12:56:05;32.97;;;23.80;;
54201;SDS011;40108;53.152;5.844;2023-04-09T12:58:31;31.00;;;21.45;;
54201;SDS011;40108;53.152;5.844;2023-04-09T13:00:57;28.20;;;21.55;;
54201;SDS011;40108;53.152;5.844;2023-04-09T13:03:23;26.15;;;19.52;;
54201;SDS011;40108;53.152;5.844;2023-04-09T13:05:49;25.40;;;19.77;;
54201;SDS011;40108;53.152;5.844;2023-04-09T13:08:15;26.40;;;20.70;;
54201;SDS011;40108;53.152;5.844;2023-04-09T13:10:42;27.35;;;21.20;;
54201;SDS011;40108;53.152;5.844;2023-04-09T13:13:08;28.77;;;22.17;;
54201;SDS011;40108;53.152;5.844;2023-04-09T13:15:37;29.42;;;21.27;;
54201;SDS011;40108;53.152;5.844;2023-04-09T13:18:04;27.80;;;20.90;;
54201;SDS011;40108;53.152;5.844;2023-04-09T13:20:30;30.75;;;20.45;;
54201;SDS011;40108;53.152;5.844;2023-04-09T13:22:56;28.10;;;20.30;;
54201;SDS011;40108;53.152;5.844;2023-04-09T13:25:21;27.02;;;20.65;;
54201;SDS011;40108;53.152;5.844;2023-04-09T13:27:47;26.45;;;20.45;;
54201;SDS011;40108;53.152;5.844;2023-04-09T13:30:13;27.83;;;21.15;;
54201;SDS011;40108;53.152;5.844;2023-04-09T13:32:39;29.20;;;22.15;;
54201;SDS011;40108;53.152;5.844;2023-04-09T13:35:06;29.13;;;20.67;;
54201;SDS011;40108;53.152;5.844;2023-04-09T13:37:33;27.02;;;20.63;;
54201;SDS011;40108;53.152;5.844;2023-04-09T13:39:58;30.55;;;20.92;;
54201;SDS011;40108;53.152;5.844;2023-04-09T13:42:24;29.05;;;21.40;;
54201;SDS011;40108;53.152;5.844;2023-04-09T13:44:50;28.02;;;21.20;;
54201;SDS011;40108;53.152;5.844;2023-04-09T13:47:16;25.55;;;20.20;;
54201;SDS011;40108;53.152;5.844;2023-04-09T13:49:42;29.30;;;20.98;;
54201;SDS011;40108;53.152;5.844;2023-04-09T13:52:08;28.67;;;21.10;;
54201;SDS011;40108;53.152;5.844;2023-04-09T13:54:34;27.83;;;21.17;;
54201;SDS011;40108;53.152;5.844;2023-04-09T13:57:01;29.05;;;21.20;;
54201;SDS011;40108;53.152;5.844;2023-04-09T13:59:27;26.00;;;20.15;;
54201;SDS011;40108;53.152;5.844;2023-04-09T14:01:53;28.48;;;19.98;;
54201;SDS011;40108;53.152;5.844;2023-04-09T14:04:19;27.75;;;20.50;;
54201;SDS011;40108;53.152;5.844;2023-04-09T14:06:45;25.83;;;19.23;;
54201;SDS011;40108;53.152;5.844;2023-04-09T14:09:11;23.20;;;17.83;;
54201;SDS011;40108;53.152;5.844;2023-04-09T14:11:38;23.67;;;17.17;;
54201;SDS011;40108;53.152;5.844;2023-04-09T14:14:04;23.80;;;18.30;;
54201;SDS011;40108;53.152;5.844;2023-04-09T14:16:29;29.08;;;18.67;;
54201;SDS011;40108;53.152;5.844;2023-04-09T14:18:56;23.33;;;17.48;;
54201;SDS011;40108;53.152;5.844;2023-04-09T14:21:22;27.33;;;19.30;;
54201;SDS011;40108;53.152;5.844;2023-04-09T14:23:48;25.05;;;17.73;;
54201;SDS011;40108;53.152;5.844;2023-04-09T14:26:14;24.30;;;18.17;;
54201;SDS011;40108;53.152;5.844;2023-04-09T14:28:43;29.52;;;19.27;;
54201;SDS011;40108;53.152;5.844;2023-04-09T14:31:11;25.73;;;18.40;;
54201;SDS011;40108;53.152;5.844;2023-04-09T14:33:38;24.05;;;18.52;;
54201;SDS011;40108;53.152;5.844;2023-04-09T14:36:04;25.63;;;18.20;;
54201;SDS011;40108;53.152;5.844;2023-04-09T14:38:31;26.35;;;18.95;;
54201;SDS011;40108;53.152;5.844;2023-04-09T14:40:58;23.80;;;17.80;;